sensor_id;sensor_type;location;lat;lon;timestamp;temperature;humidity
42099;DHT22;27758;55.900;8.516;2022-08-18T00:00:33;17.20;99.90
42099;DHT22;27758;55.900;8.516;2022-08-18T00:02:59;17.20;99.90
42099;DHT22;27758;55.900;8.516;2022-08-18T00:05:25;17.20;99.90
42099;DHT22;27758;55.900;8.516;2022-08-18T00:07:51;17.10;99.90
42099;DHT22;27758;55.900;8.516;2022-08-18T00:10:17;17.10;99.90
42099;DHT22;27758;55.900;8.516;2022-08-18T00:12:42;17.00;99.90
42099;DHT22;27758;55.900;8.516;2022-08-18T00:15:10;16.90;99.90
42099;DHT22;27758;55.900;8.516;2022-08-18T00:17:36;16.90;99.90
42099;DHT22;27758;55.900;8.516;2022-08-18T00:20:03;16.80;99.90
42099;DHT22;27758;55.900;8.516;2022-08-18T00:22:30;16.80;99.90
42099;DHT22;27758;55.900;8.516;2022-08-18T00:24:56;16.80;99.90
42099;DHT22;27758;55.900;8.516;2022-08-18T00:27:24;16.80;99.90
42099;DHT22;27758;55.900;8.516;2022-08-18T00:29:51;16.70;99.90
42099;DHT22;27758;55.900;8.516;2022-08-18T00:32:21;16.80;99.90
42099;DHT22;27758;55.900;8.516;2022-08-18T00:34:47;16.70;99.90
42099;DHT22;27758;55.900;8.516;2022-08-18T00:37:13;16.60;99.90
42099;DHT22;27758;55.900;8.516;2022-08-18T00:39:39;16.60;99.90
42099;DHT22;27758;55.900;8.516;2022-08-18T00:42:12;16.60;99.90
42099;DHT22;27758;55.900;8.516;2022-08-18T00:44:38;16.60;99.90
42099;DHT22;27758;55.900;8.516;2022-08-18T00:47:05;16.60;99.90
42099;DHT22;27758;55.900;8.516;2022-08-18T00:49:30;16.60;99.90
42099;DHT22;27758;55.900;8.516;2022-08-18T00:51:56;16.50;99.90
42099;DHT22;27758;55.900;8.516;2022-08-18T00:54:23;16.50;99.90
42099;DHT22;27758;55.900;8.516;2022-08-18T00:56:50;16.50;99.90
42099;DHT22;27758;55.900;8.516;2022-08-18T01:01:49;16.50;99.90
42099;DHT22;27758;55.900;8.516;2022-08-18T01:04:25;16.60;99.90
42099;DHT22;27758;55.900;8.516;2022-08-18T01:06:53;16.60;99.90
42099;DHT22;27758;55.900;8.516;2022-08-18T01:09:20;16.60;99.90
42099;DHT22;27758;55.900;8.516;2022-08-18T01:11:46;16.60;99.90
42099;DHT22;27758;55.900;8.516;2022-08-18T01:14:12;16.50;99.90
42099;DHT22;27758;55.900;8.516;2022-08-18T01:16:48;16.50;99.90
42099;DHT22;27758;55.900;8.516;2022-08-18T01:19:32;16.50;99.90
42099;DHT22;27758;55.900;8.516;2022-08-18T01:25:01;16.60;99.90
42099;DHT22;27758;55.900;8.516;2022-08-18T01:27:46;16.50;99.90
42099;DHT22;27758;55.900;8.516;2022-08-18T01:30:13;16.50;99.90
42099;DHT22;27758;55.900;8.516;2022-08-18T01:32:39;16.50;99.90
42099;DHT22;27758;55.900;8.516;2022-08-18T01:35:07;16.50;99.90
42099;DHT22;27758;55.900;8.516;2022-08-18T01:37:35;16.50;99.90
42099;DHT22;27758;55.900;8.516;2022-08-18T01:40:01;16.50;99.90
42099;DHT22;27758;55.900;8.516;2022-08-18T01:42:30;16.40;99.90
42099;DHT22;27758;55.900;8.516;2022-08-18T01:44:56;16.50;99.90
42099;DHT22;27758;55.900;8.516;2022-08-18T01:47:22;16.50;99.90
42099;DHT22;27758;55.900;8.516;2022-08-18T01:49:47;16.40;99.90
42099;DHT22;27758;55.900;8.516;2022-08-18T01:52:14;16.50;99.90
42099;DHT22;27758;55.900;8.516;2022-08-18T01:54:43;16.40;99.90
42099;DHT22;27758;55.900;8.516;2022-08-18T01:57:09;16.40;99.90
42099;DHT22;27758;55.900;8.516;2022-08-18T01:59:37;16.40;99.90
42099;DHT22;27758;55.900;8.516;2022-08-18T02:02:03;16.40;99.90
42099;DHT22;27758;55.900;8.516;2022-08-18T02:04:29;16.40;99.90
42099;DHT22;27758;55.900;8.516;2022-08-18T02:06:58;16.40;99.90
42099;DHT22;27758;55.900;8.516;2022-08-18T02:09:23;16.30;99.90
42099;DHT22;27758;55.900;8.516;2022-08-18T02:11:49;16.30;99.90
42099;DHT22;27758;55.900;8.516;2022-08-18T02:14:15;16.30;99.90
42099;DHT22;27758;55.900;8.516;2022-08-18T02:16:41;16.20;99.90
42099;DHT22;27758;55.900;8.516;2022-08-18T02:19:06;16.30;99.90
42099;DHT22;27758;55.900;8.516;2022-08-18T02:21:32;16.30;99.90
42099;DHT22;27758;55.900;8.516;2022-08-18T02:23:58;16.30;99.90
42099;DHT22;27758;55.900;8.516;2022-08-18T02:26:23;16.30;99.90
42099;DHT22;27758;55.900;8.516;2022-08-18T02:28:49;16.30;99.90
42099;DHT22;27758;55.900;8.516;2022-08-18T02:31:17;16.30;99.90
42099;DHT22;27758;55.900;8.516;2022-08-18T02:33:43;16.30;99.90
42099;DHT22;27758;55.900;8.516;2022-08-18T02:36:09;16.30;99.90
42099;DHT22;27758;55.900;8.516;2022-08-18T02:38:36;16.30;99.90
42099;DHT22;27758;55.900;8.516;2022-08-18T02:41:03;16.30;99.90
42099;DHT22;27758;55.900;8.516;2022-08-18T02:43:30;16.20;99.90
42099;DHT22;27758;55.900;8.516;2022-08-18T02:45:56;16.20;99.90
42099;DHT22;27758;55.900;8.516;2022-08-18T02:48:22;16.20;99.90
42099;DHT22;27758;55.900;8.516;2022-08-18T02:51:08;16.20;99.90
42099;DHT22;27758;55.900;8.516;2022-08-18T02:53:34;16.20;99.90
42099;DHT22;27758;55.900;8.516;2022-08-18T02:56:08;16.20;99.90
42099;DHT22;27758;55.900;8.516;2022-08-18T02:58:44;16.20;99.90
42099;DHT22;27758;55.900;8.516;2022-08-18T03:01:10;16.20;99.90
42099;DHT22;27758;55.900;8.516;2022-08-18T03:03:36;16.10;99.90
42099;DHT22;27758;55.900;8.516;2022-08-18T03:06:02;16.10;99.90
42099;DHT22;27758;55.900;8.516;2022-08-18T03:08:28;16.20;99.90
42099;DHT22;27758;55.900;8.516;2022-08-18T03:10:53;16.10;99.90
42099;DHT22;27758;55.900;8.516;2022-08-18T03:13:19;16.10;99.90
42099;DHT22;27758;55.900;8.516;2022-08-18T03:15:45;16.10;99.90
42099;DHT22;27758;55.900;8.516;2022-08-18T03:18:11;16.10;99.90
42099;DHT22;27758;55.900;8.516;2022-08-18T03:20:38;16.10;99.90
42099;DHT22;27758;55.900;8.516;2022-08-18T03:23:04;16.10;99.90
42099;DHT22;27758;55.900;8.516;2022-08-18T03:25:30;16.10;99.90
42099;DHT22;27758;55.900;8.516;2022-08-18T03:27:55;16.20;99.90
42099;DHT22;27758;55.900;8.516;2022-08-18T03:30:21;16.20;99.90
42099;DHT22;27758;55.900;8.516;2022-08-18T03:32:48;16.20;99.90
42099;DHT22;27758;55.900;8.516;2022-08-18T03:35:14;16.20;99.90
42099;DHT22;27758;55.900;8.516;2022-08-18T03:37:41;16.10;99.90
42099;DHT22;27758;55.900;8.516;2022-08-18T03:40:07;16.10;99.90
42099;DHT22;27758;55.900;8.516;2022-08-18T03:42:35;16.10;99.90
42099;DHT22;27758;55.900;8.516;2022-08-18T03:45:01;16.10;99.90
42099;DHT22;27758;55.900;8.516;2022-08-18T03:47:27;16.10;99.90
42099;DHT22;27758;55.900;8.516;2022-08-18T03:49:52;16.10;99.90
42099;DHT22;27758;55.900;8.516;2022-08-18T03:52:18;16.10;99.90
42099;DHT22;27758;55.900;8.516;2022-08-18T03:54:44;16.10;99.90
42099;DHT22;27758;55.900;8.516;2022-08-18T03:57:11;16.10;99.90
42099;DHT22;27758;55.900;8.516;2022-08-18T03:59:37;16.10;99.90
42099;DHT22;27758;55.900;8.516;2022-08-18T04:02:08;16.10;99.90
42099;DHT22;27758;55.900;8.516;2022-08-18T04:04:35;16.10;99.90
42099;DHT22;27758;55.900;8.516;2022-08-18T04:07:02;16.20;99.90
42099;DHT22;27758;55.900;8.516;2022-08-18T04:09:30;16.20;99.90
42099;DHT22;27758;55.900;8.516;2022-08-18T04:11:57;16.20;99.90
42099;DHT22;27758;55.900;8.516;2022-08-18T04:14:24;16.20;99.90
42099;DHT22;27758;55.900;8.516;2022-08-18T04:16:52;16.20;99.90
42099;DHT22;27758;55.900;8.516;2022-08-18T04:19:18;16.20;99.90
42099;DHT22;27758;55.900;8.516;2022-08-18T04:21:43;16.20;99.90
42099;DHT22;27758;55.900;8.516;2022-08-18T04:24:10;16.20;99.90
42099;DHT22;27758;55.900;8.516;2022-08-18T04:26:38;16.20;99.90
42099;DHT22;27758;55.900;8.516;2022-08-18T04:29:05;16.20;99.90
42099;DHT22;27758;55.900;8.516;2022-08-18T04:31:30;16.20;99.90
42099;DHT22;27758;55.900;8.516;2022-08-18T04:33:57;16.20;99.90
42099;DHT22;27758;55.900;8.516;2022-08-18T04:36:23;16.20;99.90
42099;DHT22;27758;55.900;8.516;2022-08-18T04:38:49;16.10;99.90
42099;DHT22;27758;55.900;8.516;2022-08-18T04:41:15;16.20;99.90
42099;DHT22;27758;55.900;8.516;2022-08-18T04:43:41;16.10;99.90
42099;DHT22;27758;55.900;8.516;2022-08-18T04:46:07;16.10;99.90
42099;DHT22;27758;55.900;8.516;2022-08-18T04:48:35;16.10;99.90
42099;DHT22;27758;55.900;8.516;2022-08-18T04:51:15;16.20;99.90
42099;DHT22;27758;55.900;8.516;2022-08-18T04:53:42;16.20;99.90
42099;DHT22;27758;55.900;8.516;2022-08-18T04:58:52;16.20;99.90
42099;DHT22;27758;55.900;8.516;2022-08-18T05:01:19;16.20;99.90
42099;DHT22;27758;55.900;8.516;2022-08-18T05:03:47;16.10;99.90
42099;DHT22;27758;55.900;8.516;2022-08-18T05:06:13;16.20;99.90
42099;DHT22;27758;55.900;8.516;2022-08-18T05:08:38;16.10;99.90
42099;DHT22;27758;55.900;8.516;2022-08-18T05:11:05;16.10;99.90
42099;DHT22;27758;55.900;8.516;2022-08-18T05:13:31;16.10;99.90
42099;DHT22;27758;55.900;8.516;2022-08-18T05:15:57;16.20;99.90
42099;DHT22;27758;55.900;8.516;2022-08-18T05:18:31;16.10;99.90
42099;DHT22;27758;55.900;8.516;2022-08-18T05:20:57;16.10;99.90
42099;DHT22;27758;55.900;8.516;2022-08-18T05:23:24;16.10;99.90
42099;DHT22;27758;55.900;8.516;2022-08-18T05:25:55;16.10;99.90
42099;DHT22;27758;55.900;8.516;2022-08-18T05:28:21;16.10;99.90
42099;DHT22;27758;55.900;8.516;2022-08-18T05:30:47;16.00;99.90
42099;DHT22;27758;55.900;8.516;2022-08-18T05:33:13;16.00;99.90
42099;DHT22;27758;55.900;8.516;2022-08-18T05:35:43;16.00;99.90
42099;DHT22;27758;55.900;8.516;2022-08-18T05:40:40;16.10;99.90
42099;DHT22;27758;55.900;8.516;2022-08-18T05:43:06;16.00;99.90
42099;DHT22;27758;55.900;8.516;2022-08-18T05:45:32;16.10;99.90
42099;DHT22;27758;55.900;8.516;2022-08-18T05:47:59;16.10;99.90
42099;DHT22;27758;55.900;8.516;2022-08-18T05:50:26;16.10;99.90
42099;DHT22;27758;55.900;8.516;2022-08-18T05:52:56;16.10;99.90
42099;DHT22;27758;55.900;8.516;2022-08-18T05:58:36;16.20;99.90
42099;DHT22;27758;55.900;8.516;2022-08-18T06:01:02;16.30;99.90
42099;DHT22;27758;55.900;8.516;2022-08-18T06:05:55;16.40;99.90
42099;DHT22;27758;55.900;8.516;2022-08-18T06:08:24;16.50;99.90
42099;DHT22;27758;55.900;8.516;2022-08-18T06:10:51;16.50;99.90
42099;DHT22;27758;55.900;8.516;2022-08-18T06:13:17;16.50;99.90
42099;DHT22;27758;55.900;8.516;2022-08-18T06:20:44;16.60;99.90
42099;DHT22;27758;55.900;8.516;2022-08-18T06:25:51;16.70;99.90
42099;DHT22;27758;55.900;8.516;2022-08-18T06:28:19;16.80;99.90
42099;DHT22;27758;55.900;8.516;2022-08-18T06:30:53;16.80;99.90
42099;DHT22;27758;55.900;8.516;2022-08-18T06:36:02;16.80;99.90
42099;DHT22;27758;55.900;8.516;2022-08-18T06:38:34;16.90;99.90
42099;DHT22;27758;55.900;8.516;2022-08-18T06:41:18;16.80;99.90
42099;DHT22;27758;55.900;8.516;2022-08-18T06:43:55;16.80;99.90
42099;DHT22;27758;55.900;8.516;2022-08-18T06:46:38;16.80;99.90
42099;DHT22;27758;55.900;8.516;2022-08-18T06:49:09;16.80;99.90
42099;DHT22;27758;55.900;8.516;2022-08-18T06:51:36;16.80;99.90
42099;DHT22;27758;55.900;8.516;2022-08-18T06:56:47;16.80;99.90
42099;DHT22;27758;55.900;8.516;2022-08-18T07:01:46;16.90;99.90
42099;DHT22;27758;55.900;8.516;2022-08-18T07:04:28;16.90;99.90
42099;DHT22;27758;55.900;8.516;2022-08-18T07:06:54;16.90;99.90
42099;DHT22;27758;55.900;8.516;2022-08-18T07:09:21;17.00;99.90
42099;DHT22;27758;55.900;8.516;2022-08-18T07:14:26;17.20;99.90
42099;DHT22;27758;55.900;8.516;2022-08-18T07:17:08;17.30;99.90
42099;DHT22;27758;55.900;8.516;2022-08-18T07:19:34;17.30;99.90
42099;DHT22;27758;55.900;8.516;2022-08-18T07:29:30;17.50;99.90
42099;DHT22;27758;55.900;8.516;2022-08-18T07:31:58;17.40;99.90
42099;DHT22;27758;55.900;8.516;2022-08-18T07:34:32;17.30;99.90
42099;DHT22;27758;55.900;8.516;2022-08-18T07:37:02;17.30;99.90
42099;DHT22;27758;55.900;8.516;2022-08-18T07:39:30;17.30;99.90
42099;DHT22;27758;55.900;8.516;2022-08-18T07:42:05;17.20;99.90
42099;DHT22;27758;55.900;8.516;2022-08-18T07:47:07;17.30;99.90
42099;DHT22;27758;55.900;8.516;2022-08-18T07:49:44;17.20;99.90
42099;DHT22;27758;55.900;8.516;2022-08-18T07:52:14;17.20;99.90
42099;DHT22;27758;55.900;8.516;2022-08-18T07:54:45;17.30;99.90
42099;DHT22;27758;55.900;8.516;2022-08-18T08:00:00;17.30;99.90
42099;DHT22;27758;55.900;8.516;2022-08-18T08:05:03;17.40;99.90
42099;DHT22;27758;55.900;8.516;2022-08-18T08:07:34;17.50;99.90
42099;DHT22;27758;55.900;8.516;2022-08-18T08:17:56;17.70;99.90
42099;DHT22;27758;55.900;8.516;2022-08-18T08:20:25;17.70;99.90
42099;DHT22;27758;55.900;8.516;2022-08-18T08:23:00;17.70;99.90
42099;DHT22;27758;55.900;8.516;2022-08-18T08:30:58;17.60;99.90
42099;DHT22;27758;55.900;8.516;2022-08-18T08:33:30;17.60;99.90
42099;DHT22;27758;55.900;8.516;2022-08-18T08:36:08;17.60;99.90
42099;DHT22;27758;55.900;8.516;2022-08-18T08:38:44;17.70;99.90
42099;DHT22;27758;55.900;8.516;2022-08-18T08:41:12;17.60;99.90
42099;DHT22;27758;55.900;8.516;2022-08-18T08:43:41;17.70;99.90
42099;DHT22;27758;55.900;8.516;2022-08-18T08:46:09;17.70;99.90
42099;DHT22;27758;55.900;8.516;2022-08-18T08:48:39;17.70;99.90
42099;DHT22;27758;55.900;8.516;2022-08-18T08:53:52;17.60;99.90
42099;DHT22;27758;55.900;8.516;2022-08-18T08:56:19;17.60;99.90
42099;DHT22;27758;55.900;8.516;2022-08-18T08:58:53;17.70;99.90
42099;DHT22;27758;55.900;8.516;2022-08-18T09:01:24;17.60;99.90
42099;DHT22;27758;55.900;8.516;2022-08-18T09:04:03;17.70;99.90
42099;DHT22;27758;55.900;8.516;2022-08-18T09:22:45;17.90;99.90
42099;DHT22;27758;55.900;8.516;2022-08-18T09:28:14;17.90;99.90
42099;DHT22;27758;55.900;8.516;2022-08-18T09:33:20;17.90;99.90
42099;DHT22;27758;55.900;8.516;2022-08-18T09:38:57;18.10;99.90
42099;DHT22;27758;55.900;8.516;2022-08-18T09:41:47;18.10;99.90
42099;DHT22;27758;55.900;8.516;2022-08-18T09:44:55;18.20;99.90
42099;DHT22;27758;55.900;8.516;2022-08-18T09:47:01;18.20;99.90
42099;DHT22;27758;55.900;8.516;2022-08-18T09:52:00;18.40;99.90
42099;DHT22;27758;55.900;8.516;2022-08-18T09:57:30;18.50;99.90
42099;DHT22;27758;55.900;8.516;2022-08-18T09:59:57;18.50;99.90
42099;DHT22;27758;55.900;8.516;2022-08-18T10:07:37;18.70;99.90
42099;DHT22;27758;55.900;8.516;2022-08-18T10:10:07;18.90;99.90
42099;DHT22;27758;55.900;8.516;2022-08-18T10:15:32;18.80;99.90
42099;DHT22;27758;55.900;8.516;2022-08-18T10:29:09;18.70;99.90
42099;DHT22;27758;55.900;8.516;2022-08-18T10:42:18;18.20;99.90
42099;DHT22;27758;55.900;8.516;2022-08-18T10:44:48;18.10;99.90
42099;DHT22;27758;55.900;8.516;2022-08-18T10:47:23;18.00;99.90
42099;DHT22;27758;55.900;8.516;2022-08-18T10:49:50;18.10;99.90
42099;DHT22;27758;55.900;8.516;2022-08-18T10:57:49;18.30;99.90
42099;DHT22;27758;55.900;8.516;2022-08-18T11:00:19;18.40;99.90
42099;DHT22;27758;55.900;8.516;2022-08-18T11:02:53;18.50;99.90
42099;DHT22;27758;55.900;8.516;2022-08-18T11:05:22;18.50;99.90
42099;DHT22;27758;55.900;8.516;2022-08-18T11:07:49;18.60;99.90
42099;DHT22;27758;55.900;8.516;2022-08-18T11:10:20;18.70;99.90
42099;DHT22;27758;55.900;8.516;2022-08-18T11:15:20;18.60;99.90
42099;DHT22;27758;55.900;8.516;2022-08-18T11:20:26;18.70;99.90
42099;DHT22;27758;55.900;8.516;2022-08-18T11:22:54;18.80;99.90
42099;DHT22;27758;55.900;8.516;2022-08-18T11:27:55;19.20;99.90
42099;DHT22;27758;55.900;8.516;2022-08-18T11:30:22;19.20;99.90
42099;DHT22;27758;55.900;8.516;2022-08-18T11:32:49;19.40;99.90
42099;DHT22;27758;55.900;8.516;2022-08-18T11:35:17;19.50;99.90
42099;DHT22;27758;55.900;8.516;2022-08-18T11:37:45;19.50;99.90
42099;DHT22;27758;55.900;8.516;2022-08-18T11:40:32;19.60;99.90
42099;DHT22;27758;55.900;8.516;2022-08-18T11:45:32;19.50;99.90
42099;DHT22;27758;55.900;8.516;2022-08-18T11:56:02;19.40;99.90
42099;DHT22;27758;55.900;8.516;2022-08-18T11:58:45;19.40;99.90
42099;DHT22;27758;55.900;8.516;2022-08-18T12:01:33;19.40;99.90
42099;DHT22;27758;55.900;8.516;2022-08-18T12:04:19;19.40;99.90
42099;DHT22;27758;55.900;8.516;2022-08-18T12:09:19;19.40;99.90
42099;DHT22;27758;55.900;8.516;2022-08-18T12:11:50;19.40;99.90
42099;DHT22;27758;55.900;8.516;2022-08-18T12:14:20;19.30;99.90
42099;DHT22;27758;55.900;8.516;2022-08-18T12:16:46;19.30;99.90
42099;DHT22;27758;55.900;8.516;2022-08-18T12:19:13;19.20;99.90
42099;DHT22;27758;55.900;8.516;2022-08-18T12:21:39;19.20;99.90
42099;DHT22;27758;55.900;8.516;2022-08-18T12:24:07;19.20;99.90
42099;DHT22;27758;55.900;8.516;2022-08-18T12:26:33;19.20;99.90
42099;DHT22;27758;55.900;8.516;2022-08-18T12:28:59;19.20;99.90
42099;DHT22;27758;55.900;8.516;2022-08-18T12:31:25;19.20;99.90
42099;DHT22;27758;55.900;8.516;2022-08-18T12:33:50;19.20;99.90
42099;DHT22;27758;55.900;8.516;2022-08-18T12:36:16;19.20;99.90
42099;DHT22;27758;55.900;8.516;2022-08-18T12:38:42;19.30;99.90
42099;DHT22;27758;55.900;8.516;2022-08-18T12:41:09;19.20;99.90
42099;DHT22;27758;55.900;8.516;2022-08-18T12:43:37;19.30;99.90
42099;DHT22;27758;55.900;8.516;2022-08-18T12:46:04;19.20;99.90
42099;DHT22;27758;55.900;8.516;2022-08-18T12:48:29;19.30;99.90
42099;DHT22;27758;55.900;8.516;2022-08-18T12:50:56;19.30;99.90
42099;DHT22;27758;55.900;8.516;2022-08-18T12:53:23;19.30;99.90
42099;DHT22;27758;55.900;8.516;2022-08-18T12:55:49;19.30;99.90
42099;DHT22;27758;55.900;8.516;2022-08-18T12:58:14;19.30;99.90
42099;DHT22;27758;55.900;8.516;2022-08-18T13:00:41;19.40;99.90
42099;DHT22;27758;55.900;8.516;2022-08-18T13:03:07;19.40;99.90
42099;DHT22;27758;55.900;8.516;2022-08-18T13:05:32;19.50;99.90
42099;DHT22;27758;55.900;8.516;2022-08-18T13:07:59;19.60;99.90
42099;DHT22;27758;55.900;8.516;2022-08-18T13:10:25;19.60;99.90
42099;DHT22;27758;55.900;8.516;2022-08-18T13:12:51;19.60;99.90
42099;DHT22;27758;55.900;8.516;2022-08-18T13:15:17;19.70;99.90
42099;DHT22;27758;55.900;8.516;2022-08-18T13:17:42;19.70;99.90
42099;DHT22;27758;55.900;8.516;2022-08-18T13:20:10;19.70;99.90
42099;DHT22;27758;55.900;8.516;2022-08-18T13:22:36;19.70;99.90
42099;DHT22;27758;55.900;8.516;2022-08-18T13:25:05;19.70;99.90
42099;DHT22;27758;55.900;8.516;2022-08-18T13:27:32;19.70;99.90
42099;DHT22;27758;55.900;8.516;2022-08-18T13:29:59;19.60;99.90
42099;DHT22;27758;55.900;8.516;2022-08-18T13:32:24;19.70;99.90
42099;DHT22;27758;55.900;8.516;2022-08-18T13:34:51;19.60;99.90
42099;DHT22;27758;55.900;8.516;2022-08-18T13:37:16;19.60;99.90
42099;DHT22;27758;55.900;8.516;2022-08-18T13:39:42;19.60;99.90
42099;DHT22;27758;55.900;8.516;2022-08-18T13:42:08;19.50;99.90
42099;DHT22;27758;55.900;8.516;2022-08-18T13:44:34;19.60;99.90
42099;DHT22;27758;55.900;8.516;2022-08-18T13:47:00;19.70;99.90
42099;DHT22;27758;55.900;8.516;2022-08-18T13:49:25;19.70;99.90
42099;DHT22;27758;55.900;8.516;2022-08-18T13:51:52;19.80;99.90
42099;DHT22;27758;55.900;8.516;2022-08-18T13:54:30;19.80;99.90
42099;DHT22;27758;55.900;8.516;2022-08-18T13:56:58;19.70;99.90
42099;DHT22;27758;55.900;8.516;2022-08-18T13:59:25;19.70;99.90
42099;DHT22;27758;55.900;8.516;2022-08-18T14:01:56;19.70;99.90
42099;DHT22;27758;55.900;8.516;2022-08-18T14:04:22;19.80;99.90
42099;DHT22;27758;55.900;8.516;2022-08-18T14:06:49;19.90;99.90
42099;DHT22;27758;55.900;8.516;2022-08-18T14:09:15;19.90;99.90
42099;DHT22;27758;55.900;8.516;2022-08-18T14:11:40;20.00;99.90
42099;DHT22;27758;55.900;8.516;2022-08-18T14:14:06;20.10;99.90
42099;DHT22;27758;55.900;8.516;2022-08-18T14:16:32;20.10;99.90
42099;DHT22;27758;55.900;8.516;2022-08-18T14:18:58;20.20;99.90
42099;DHT22;27758;55.900;8.516;2022-08-18T14:21:45;20.30;99.90
42099;DHT22;27758;55.900;8.516;2022-08-18T14:24:30;20.40;99.90
42099;DHT22;27758;55.900;8.516;2022-08-18T14:27:14;20.40;99.90
42099;DHT22;27758;55.900;8.516;2022-08-18T14:29:40;20.50;99.90
42099;DHT22;27758;55.900;8.516;2022-08-18T14:32:08;20.40;99.90
42099;DHT22;27758;55.900;8.516;2022-08-18T14:34:34;20.20;99.90
42099;DHT22;27758;55.900;8.516;2022-08-18T14:37:00;20.20;99.90
42099;DHT22;27758;55.900;8.516;2022-08-18T14:39:26;20.00;99.90
42099;DHT22;27758;55.900;8.516;2022-08-18T14:41:51;19.80;99.90
42099;DHT22;27758;55.900;8.516;2022-08-18T14:44:17;19.80;99.90
42099;DHT22;27758;55.900;8.516;2022-08-18T14:46:43;19.70;99.90
42099;DHT22;27758;55.900;8.516;2022-08-18T14:49:12;19.70;99.90
42099;DHT22;27758;55.900;8.516;2022-08-18T14:51:38;19.70;99.90
42099;DHT22;27758;55.900;8.516;2022-08-18T14:54:08;19.70;99.90
42099;DHT22;27758;55.900;8.516;2022-08-18T14:56:34;19.70;99.90
42099;DHT22;27758;55.900;8.516;2022-08-18T14:58:59;19.60;99.90
42099;DHT22;27758;55.900;8.516;2022-08-18T15:01:25;19.60;99.90
42099;DHT22;27758;55.900;8.516;2022-08-18T15:03:51;19.40;99.90
42099;DHT22;27758;55.900;8.516;2022-08-18T15:06:18;19.40;99.90
42099;DHT22;27758;55.900;8.516;2022-08-18T15:08:44;19.30;99.90
42099;DHT22;27758;55.900;8.516;2022-08-18T15:11:10;19.30;99.90
42099;DHT22;27758;55.900;8.516;2022-08-18T15:13:37;19.20;99.90
42099;DHT22;27758;55.900;8.516;2022-08-18T15:16:04;19.20;99.90
42099;DHT22;27758;55.900;8.516;2022-08-18T15:18:30;19.20;99.90
42099;DHT22;27758;55.900;8.516;2022-08-18T15:20:56;19.20;99.90
42099;DHT22;27758;55.900;8.516;2022-08-18T15:23:40;19.20;99.90
42099;DHT22;27758;55.900;8.516;2022-08-18T15:26:24;19.20;99.90
42099;DHT22;27758;55.900;8.516;2022-08-18T15:28:50;19.20;99.90
42099;DHT22;27758;55.900;8.516;2022-08-18T15:31:16;19.20;99.90
42099;DHT22;27758;55.900;8.516;2022-08-18T15:33:42;19.10;99.90
42099;DHT22;27758;55.900;8.516;2022-08-18T15:36:08;19.10;99.90
42099;DHT22;27758;55.900;8.516;2022-08-18T15:38:34;19.10;99.90
42099;DHT22;27758;55.900;8.516;2022-08-18T15:41:00;19.10;99.90
42099;DHT22;27758;55.900;8.516;2022-08-18T15:43:28;19.20;99.90
42099;DHT22;27758;55.900;8.516;2022-08-18T15:45:54;19.20;99.90
42099;DHT22;27758;55.900;8.516;2022-08-18T15:48:20;19.20;99.90
42099;DHT22;27758;55.900;8.516;2022-08-18T15:50:47;19.10;99.90
42099;DHT22;27758;55.900;8.516;2022-08-18T15:53:16;19.20;99.90
42099;DHT22;27758;55.900;8.516;2022-08-18T15:55:43;19.10;99.90
42099;DHT22;27758;55.900;8.516;2022-08-18T15:58:10;19.10;99.90
42099;DHT22;27758;55.900;8.516;2022-08-18T16:00:36;19.20;99.90
42099;DHT22;27758;55.900;8.516;2022-08-18T16:03:05;19.20;99.90
42099;DHT22;27758;55.900;8.516;2022-08-18T16:05:33;19.30;99.90
42099;DHT22;27758;55.900;8.516;2022-08-18T16:07:59;19.30;99.90
42099;DHT22;27758;55.900;8.516;2022-08-18T16:10:27;19.40;99.90
42099;DHT22;27758;55.900;8.516;2022-08-18T16:12:53;19.40;99.90
42099;DHT22;27758;55.900;8.516;2022-08-18T16:15:20;19.40;99.90
42099;DHT22;27758;55.900;8.516;2022-08-18T16:17:47;19.40;99.90
42099;DHT22;27758;55.900;8.516;2022-08-18T16:20:13;19.40;99.90
42099;DHT22;27758;55.900;8.516;2022-08-18T16:22:39;19.40;99.90
42099;DHT22;27758;55.900;8.516;2022-08-18T16:25:06;19.40;99.90
42099;DHT22;27758;55.900;8.516;2022-08-18T16:27:33;19.40;99.90
42099;DHT22;27758;55.900;8.516;2022-08-18T16:29:59;19.50;99.90
42099;DHT22;27758;55.900;8.516;2022-08-18T16:32:25;19.50;99.90
42099;DHT22;27758;55.900;8.516;2022-08-18T16:34:51;19.40;99.90
42099;DHT22;27758;55.900;8.516;2022-08-18T16:37:17;19.50;99.90
42099;DHT22;27758;55.900;8.516;2022-08-18T16:39:43;19.40;99.90
42099;DHT22;27758;55.900;8.516;2022-08-18T16:42:09;19.50;99.90
42099;DHT22;27758;55.900;8.516;2022-08-18T16:44:36;19.60;99.90
42099;DHT22;27758;55.900;8.516;2022-08-18T16:47:05;19.60;99.90
42099;DHT22;27758;55.900;8.516;2022-08-18T16:49:31;19.60;99.90
42099;DHT22;27758;55.900;8.516;2022-08-18T16:51:58;19.50;99.90
42099;DHT22;27758;55.900;8.516;2022-08-18T16:54:26;19.40;99.90
42099;DHT22;27758;55.900;8.516;2022-08-18T16:56:52;19.40;99.90
42099;DHT22;27758;55.900;8.516;2022-08-18T16:59:18;19.20;99.90
42099;DHT22;27758;55.900;8.516;2022-08-18T17:02:02;19.20;99.90
42099;DHT22;27758;55.900;8.516;2022-08-18T17:04:46;19.10;99.90
42099;DHT22;27758;55.900;8.516;2022-08-18T17:07:12;19.00;99.90
42099;DHT22;27758;55.900;8.516;2022-08-18T17:09:38;18.90;99.90
42099;DHT22;27758;55.900;8.516;2022-08-18T17:12:03;18.90;99.90
42099;DHT22;27758;55.900;8.516;2022-08-18T17:14:30;18.90;99.90
42099;DHT22;27758;55.900;8.516;2022-08-18T17:16:56;18.90;99.90
42099;DHT22;27758;55.900;8.516;2022-08-18T17:19:23;18.80;99.90
42099;DHT22;27758;55.900;8.516;2022-08-18T17:21:49;18.80;99.90
42099;DHT22;27758;55.900;8.516;2022-08-18T17:24:15;18.70;99.90
42099;DHT22;27758;55.900;8.516;2022-08-18T17:31:41;18.50;99.90
42099;DHT22;27758;55.900;8.516;2022-08-18T17:34:09;18.50;99.90
42099;DHT22;27758;55.900;8.516;2022-08-18T17:36:57;18.40;99.90
42099;DHT22;27758;55.900;8.516;2022-08-18T17:39:23;18.40;99.90
42099;DHT22;27758;55.900;8.516;2022-08-18T17:41:50;18.50;99.90
42099;DHT22;27758;55.900;8.516;2022-08-18T17:44:34;18.50;99.90
42099;DHT22;27758;55.900;8.516;2022-08-18T17:47:02;18.50;99.90
42099;DHT22;27758;55.900;8.516;2022-08-18T17:49:30;18.60;99.90
42099;DHT22;27758;55.900;8.516;2022-08-18T17:52:17;18.60;99.90
42099;DHT22;27758;55.900;8.516;2022-08-18T17:54:46;18.50;99.90
42099;DHT22;27758;55.900;8.516;2022-08-18T17:57:21;18.40;99.90
42099;DHT22;27758;55.900;8.516;2022-08-18T18:02:18;18.40;99.90
42099;DHT22;27758;55.900;8.516;2022-08-18T18:04:44;18.40;99.90
42099;DHT22;27758;55.900;8.516;2022-08-18T18:10:08;18.40;99.90
42099;DHT22;27758;55.900;8.516;2022-08-18T18:12:35;18.30;99.90
42099;DHT22;27758;55.900;8.516;2022-08-18T18:15:03;18.30;99.90
42099;DHT22;27758;55.900;8.516;2022-08-18T18:17:31;18.30;99.90
42099;DHT22;27758;55.900;8.516;2022-08-18T18:20:10;18.30;99.90